Time;durP1;ratioP1;P1;durP2;ratioP2;P2;SDS_P1;SDS_P2;PMS_P1;PMS_P2;Temp;Humidity;BMP_temperature;BMP_pressure;BME280_temperature;BME280_humidity;BME280_pressure;Samples;Min_cycle;Max_cycle;Signal;HPM_P1;HPM_P2
2024/01/12 00:01:13;;;;;;;;;;;;;;;15.93;35.02;100634.59;5067290;28;1111;-44
2024/01/12 00:03:38;;;;;;;;;;;;;;;15.78;35.85;100639.22;5071284;28;1079;-43
2024/01/12 00:06:04;;;;;;;;;;;;;;;17.81;32.00;100641.88;5068772;28;1043;-43
2024/01/12 00:08:32;;;;;;;;;;;;;;;16.19;34.87;100642.50;5064670;28;1577;-44
2024/01/12 00:10:57;;;;;;;;;;;;;;;15.60;35.57;100641.38;5071900;28;2552;-44
2024/01/12 00:13:23;;;;;;;;;;;;;;;16.73;34.26;100636.81;5075858;28;1917;-45
2024/01/12 00:15:49;;;;;;;;;;;;;;;16.44;33.89;100635.38;5077943;28;1094;-44
2024/01/12 00:18:14;;;;;;;;;;;;;;;15.51;35.60;100629.59;5059915;28;1165;-45
2024/01/12 00:20:43;;;;;;;;;;;;;;;17.11;33.27;100627.75;5063312;28;1142;-45
2024/01/12 00:23:09;;;;;;;;;;;;;;;16.91;33.37;100626.59;5058222;28;1055;-43
2024/01/12 00:25:34;;;;;;;;;;;;;;;15.79;35.07;100630.28;5068809;28;1074;-43
2024/01/12 00:28:00;;;;;;;;;;;;;;;17.34;32.90;100629.56;5072947;28;1054;-44
2024/01/12 00:30:25;;;;;;;;;;;;;;;17.04;32.81;100620.31;5069239;28;1159;-46
2024/01/12 00:32:51;;;;;;;;;;;;;;;15.92;35.03;100624.94;5070843;28;1909;-43
2024/01/12 00:35:17;;;;;;;;;;;;;;;15.51;36.06;100629.59;5069009;28;1090;-42
2024/01/12 00:37:42;;;;;;;;;;;;;;;17.16;33.11;100619.41;5063968;28;1118;-45
2024/01/12 00:40:08;;;;;;;;;;;;;;;17.13;32.61;100624.97;5076993;28;1035;-47
2024/01/12 00:42:34;;;;;;;;;;;;;;;15.93;35.21;100623.13;5077032;28;2649;-43
2024/01/12 00:45:00;;;;;;;;;;;;;;;18.03;31.64;100619.72;5077284;28;1070;-42
2024/01/12 00:47:25;;;;;;;;;;;;;;;16.51;33.99;100612.72;5073084;28;1088;-40
2024/01/12 00:49:51;;;;;;;;;;;;;;;17.06;33.16;100621.06;5068575;28;1028;-42
2024/01/12 00:52:16;;;;;;;;;;;;;;;17.71;31.73;100618.69;5073149;28;1897;-43
2024/01/12 00:54:42;;;;;;;;;;;;;;;16.23;34.15;100616.59;5067878;28;1047;-42
2024/01/12 00:57:08;;;;;;;;;;;;;;;15.79;35.22;100617.03;5069998;28;1134;-44
2024/01/12 00:59:33;;;;;;;;;;;;;;;17.73;32.13;100616.72;5068046;28;1417;-45
2024/01/12 01:01:59;;;;;;;;;;;;;;;17.06;32.80;100621.06;5063340;28;1048;-44
2024/01/12 01:04:28;;;;;;;;;;;;;;;16.02;34.89;100603.91;5077350;28;1046;-44
2024/01/12 01:06:53;;;;;;;;;;;;;;;16.09;34.81;100596.34;5064052;28;1103;-46
2024/01/12 01:09:19;;;;;;;;;;;;;;;17.82;31.54;100603.66;5068779;28;1129;-43
2024/01/12 01:11:44;;;;;;;;;;;;;;;16.15;34.49;100602.06;5061909;28;2342;-44
2024/01/12 01:14:10;;;;;;;;;;;;;;;15.58;35.75;100608.78;5057246;28;1099;-42
2024/01/12 01:16:36;;;;;;;;;;;;;;;15.93;35.45;100608.06;5073945;28;964;-45
2024/01/12 01:19:01;;;;;;;;;;;;;;;17.92;31.76;100611.75;5077135;28;1135;-44
2024/01/12 01:21:27;;;;;;;;;;;;;;;16.36;33.89;100608.56;5062563;28;1084;-43
2024/01/12 01:23:54;;;;;;;;;;;;;;;16.94;33.42;100621.03;5066700;28;992;-43
2024/01/12 01:26:19;;;;;;;;;;;;;;;17.42;32.16;100608.53;5072088;28;1079;-42
2024/01/12 01:28:45;;;;;;;;;;;;;;;16.10;34.62;100606.03;5056443;28;1123;-45
2024/01/12 01:31:10;;;;;;;;;;;;;;;15.59;35.61;100608.69;5042991;28;1044;-43
2024/01/12 01:33:36;;;;;;;;;;;;;;;16.18;34.95;100610.75;5066997;28;1906;-42
2024/01/12 01:36:03;;;;;;;;;;;;;;;17.92;31.76;100612.59;5056639;28;954;-41
2024/01/12 01:38:28;;;;;;;;;;;;;;;16.12;34.47;100614.69;5067305;28;1107;-42
2024/01/12 01:40:54;;;;;;;;;;;;;;;15.61;35.22;100624.47;5062697;28;2510;-43
2024/01/12 01:43:21;;;;;;;;;;;;;;;16.70;33.96;100607.84;5065288;28;1023;-44
2024/01/12 01:45:47;;;;;;;;;;;;;;;18.11;31.00;100616.44;5060570;28;1127;-42
2024/01/12 01:48:12;;;;;;;;;;;;;;;16.18;34.10;100600.16;5056092;28;1059;-43
2024/01/12 01:50:38;;;;;;;;;;;;;;;15.64;35.03;100609.22;5055803;28;1060;-43
2024/01/12 01:53:03;;;;;;;;;;;;;;;15.92;35.09;100601.06;5058432;28;1910;-43
2024/01/12 01:55:29;;;;;;;;;;;;;;;17.66;31.82;100602.25;5057684;28;1371;-45
2024/01/12 01:57:55;;;;;;;;;;;;;;;15.98;34.53;100600.63;5057978;28;1039;-43
2024/01/12 02:00:21;;;;;;;;;;;;;;;15.47;35.57;100605.09;5075821;28;1130;-43
2024/01/12 02:02:46;;;;;;;;;;;;;;;17.70;31.89;100603.69;5058123;28;1143;-42
2024/01/12 02:05:13;;;;;;;;;;;;;;;17.23;32.29;100611.81;5075810;28;1091;-41
2024/01/12 02:07:38;;;;;;;;;;;;;;;16.02;34.69;100620.69;5058840;28;1068;-44
2024/01/12 02:10:04;;;;;;;;;;;;;;;15.60;35.64;100628.09;5068202;28;1054;-43
2024/01/12 02:12:30;;;;;;;;;;;;;;;17.00;33.18;100609.94;5068231;28;2646;-44
2024/01/12 02:14:55;;;;;;;;;;;;;;;16.88;32.99;100595.78;5067681;28;1024;-43
2024/01/12 02:17:21;;;;;;;;;;;;;;;15.76;35.03;100604.84;5038381;28;1084;-42
2024/01/12 02:19:47;;;;;;;;;;;;;;;15.34;35.96;100601.59;5041862;28;1170;-45
2024/01/12 02:22:12;;;;;;;;;;;;;;;16.52;34.27;100602.94;5065306;28;848;-44
2024/01/12 02:24:38;;;;;;;;;;;;;;;16.93;32.57;100608.72;5059160;28;1051;-43
2024/01/12 02:27:04;;;;;;;;;;;;;;;15.65;35.13;100605.59;5075615;28;1122;-45
2024/01/12 02:29:29;;;;;;;;;;;;;;;17.49;32.29;100617.75;5062463;28;1170;-46
2024/01/12 02:31:55;;;;;;;;;;;;;;;16.30;33.82;100614.31;5075664;28;1989;-46
2024/01/12 02:34:20;;;;;;;;;;;;;;;15.58;35.38;100608.78;5067262;28;1036;-47
2024/01/12 02:36:46;;;;;;;;;;;;;;;17.24;32.81;100595.75;5075376;28;1106;-43
2024/01/12 02:39:11;;;;;;;;;;;;;;;17.38;32.10;100602.63;5075308;28;1110;-46
2024/01/12 02:41:37;;;;;;;;;;;;;;;15.97;34.43;100590.97;5064615;28;2534;-45
2024/01/12 02:44:03;;;;;;;;;;;;;;;17.91;31.61;100602.94;5071852;28;1155;-44
2024/01/12 02:46:28;;;;;;;;;;;;;;;16.55;33.80;100612.50;5064017;28;860;-42
2024/01/12 02:48:54;;;;;;;;;;;;;;;15.82;34.96;100614.13;5071763;28;1114;-43
2024/01/12 02:51:19;;;;;;;;;;;;;;;16.92;33.31;100622.09;5075624;28;1055;-44
2024/01/12 02:53:45;;;;;;;;;;;;;;;16.49;33.31;100617.31;5075026;28;1905;-44
2024/01/12 02:56:10;;;;;;;;;;;;;;;16.58;33.90;100625.53;5066095;28;1114;-43
2024/01/12 02:58:36;;;;;;;;;;;;;;;18.25;30.87;100630.47;5067997;28;1064;-44
2024/01/12 03:01:02;;;;;;;;;;;;;;;16.36;33.69;100627.13;5054929;28;1052;-46
2024/01/12 03:03:27;;;;;;;;;;;;;;;15.76;34.71;100630.50;5058452;28;1103;-44
2024/01/12 03:05:53;;;;;;;;;;;;;;;15.84;35.08;100638.75;5075370;28;1059;-43
2024/01/12 03:08:18;;;;;;;;;;;;;;;17.84;31.48;100641.63;5071705;28;1072;-44
2024/01/12 03:10:44;;;;;;;;;;;;;;;16.11;34.53;100639.56;5055215;28;2429;-42
2024/01/12 03:13:09;;;;;;;;;;;;;;;16.27;34.20;100642.78;5058546;28;1902;-40
2024/01/12 03:15:35;;;;;;;;;;;;;;;17.87;31.22;100646.72;5075076;28;1016;-46
2024/01/12 03:18:00;;;;;;;;;;;;;;;16.14;34.09;100645.50;5074813;28;1140;-45
2024/01/12 03:20:26;;;;;;;;;;;;;;;16.31;34.28;100640.75;5065845;28;1162;-42
2024/01/12 03:22:52;;;;;;;;;;;;;;;17.04;32.70;100647.75;5068491;28;1203;-44
2024/01/12 03:25:17;;;;;;;;;;;;;;;15.87;34.57;100648.28;5054743;28;1055;-46
2024/01/12 03:27:43;;;;;;;;;;;;;;;15.96;35.09;100650.31;5055049;28;995;-43
2024/01/12 03:30:09;;;;;;;;;;;;;;;17.97;31.24;100650.34;5064110;28;1051;-41
2024/01/12 03:32:34;;;;;;;;;;;;;;;16.51;33.72;100641.09;5061338;28;1985;-41
2024/01/12 03:35:00;;;;;;;;;;;;;;;15.69;35.10;100648.66;5071637;28;848;-47
2024/01/12 03:37:26;;;;;;;;;;;;;;;17.81;31.66;100644.56;5072679;28;1114;-43
2024/01/12 03:39:51;;;;;;;;;;;;;;;16.52;33.32;100643.63;5064375;28;1096;-45
2024/01/12 03:42:17;;;;;;;;;;;;;;;15.85;34.67;100647.56;5074068;28;2133;-48
2024/01/12 03:44:43;;;;;;;;;;;;;;;17.92;31.36;100646.34;5074928;28;1110;-40
2024/01/12 03:47:08;;;;;;;;;;;;;;;16.74;33.11;100657.09;5077706;28;1098;-42
2024/01/12 03:49:34;;;;;;;;;;;;;;;15.95;34.72;100656.53;5078058;28;1082;-44
2024/01/12 03:52:00;;;;;;;;;;;;;;;15.55;35.03;100666.38;5075637;28;1981;-43
2024/01/12 03:54:25;;;;;;;;;;;;;;;17.10;32.98;100657.94;5058202;28;1043;-45
2024/01/12 03:56:51;;;;;;;;;;;;;;;17.50;31.50;100669.09;5060790;28;1067;-42
2024/01/12 03:59:17;;;;;;;;;;;;;;;16.11;34.00;100674.91;5064586;28;911;-43
2024/01/12 04:01:43;;;;;;;;;;;;;;;15.59;35.03;100682.06;5073876;28;1055;-45
2024/01/12 04:04:08;;;;;;;;;;;;;;;17.46;32.24;100673.84;5078204;28;1134;-42
2024/01/12 04:06:34;;;;;;;;;;;;;;;16.91;32.73;100666.44;5075837;28;1059;-43
2024/01/12 04:08:59;;;;;;;;;;;;;;;15.80;34.69;100682.34;5066977;28;1127;-44
2024/01/12 04:11:25;;;;;;;;;;;;;;;15.62;35.11;100684.50;5068597;28;1939;-46
2024/01/12 04:13:50;;;;;;;;;;;;;;;17.77;31.61;100688.34;5077867;28;1979;-45
2024/01/12 04:16:16;;;;;;;;;;;;;;;16.80;32.93;100680.53;5064459;28;1059;-45
2024/01/12 04:18:42;;;;;;;;;;;;;;;15.84;34.80;100689.16;5070359;28;1116;-41
2024/01/12 04:21:07;;;;;;;;;;;;;;;17.48;32.36;100692.31;5072758;28;1233;-43
2024/01/12 04:23:33;;;;;;;;;;;;;;;16.94;32.61;100694.59;5072068;28;915;-39
2024/01/12 04:25:58;;;;;;;;;;;;;;;15.88;34.50;100690.63;5077343;28;1019;-44
2024/01/12 04:28:24;;;;;;;;;;;;;;;15.55;35.35;100697.34;5069397;28;1098;-39
2024/01/12 04:30:50;;;;;;;;;;;;;;;16.19;34.38;100700.03;5072632;28;1169;-39
2024/01/12 04:33:15;;;;;;;;;;;;;;;17.49;31.99;100702.00;5077691;28;1972;-39
2024/01/12 04:35:41;;;;;;;;;;;;;;;15.90;34.57;100707.28;5064478;28;1016;-40
2024/01/12 04:38:09;;;;;;;;;;;;;;;16.30;34.28;100715.19;5077596;28;1114;-39
2024/01/12 04:40:35;;;;;;;;;;;;;;;18.11;31.18;100717.59;5077083;28;2375;-39
2024/01/12 04:43:01;;;;;;;;;;;;;;;16.44;33.55;100719.47;5077232;28;1042;-41
2024/01/12 04:45:26;;;;;;;;;;;;;;;15.75;35.16;100727.78;5077242;28;1075;-40
2024/01/12 04:47:52;;;;;;;;;;;;;;;15.47;35.63;100729.69;5077505;28;907;-38
2024/01/12 04:50:18;;;;;;;;;;;;;;;17.41;32.38;100726.53;5077199;28;1059;-41
2024/01/12 04:52:43;;;;;;;;;;;;;;;16.76;31.69;100610.88;5069203;28;1902;-48
2024/01/12 04:55:09;;;;;;;;;;;;;;;16.05;34.68;100741.66;5059158;28;1036;-46
2024/01/12 04:57:34;;;;;;;;;;;;;;;17.41;32.42;100736.31;5068626;28;1012;-50
2024/01/12 05:00:00;;;;;;;;;;;;;;;17.25;32.28;100742.78;5072015;28;910;-46
2024/01/12 05:02:25;;;;;;;;;;;;;;;16.11;34.39;100751.00;5077629;28;1106;-46
2024/01/12 05:04:51;;;;;;;;;;;;;;;15.58;35.67;100747.50;5063658;28;1206;-41
2024/01/12 05:07:17;;;;;;;;;;;;;;;15.52;35.64;100759.41;5077052;28;1082;-49
2024/01/12 05:09:42;;;;;;;;;;;;;;;17.73;31.99;100748.94;5063353;28;1055;-47
2024/01/12 05:12:08;;;;;;;;;;;;;;;16.01;34.52;100759.63;5069031;28;2307;-49
2024/01/12 05:14:33;;;;;;;;;;;;;;;15.47;35.76;100760.66;5063718;28;1092;-43
2024/01/12 05:16:59;;;;;;;;;;;;;;;15.29;36.25;100758.31;5076522;28;1295;-45
2024/01/12 05:19:24;;;;;;;;;;;;;;;17.17;32.86;100753.16;5075407;28;1490;-42
2024/01/12 05:21:50;;;;;;;;;;;;;;;16.84;32.85;100758.19;5076457;28;1146;-47
2024/01/12 05:24:16;;;;;;;;;;;;;;;16.13;34.50;100768.50;5069174;28;860;-43
2024/01/12 05:26:42;;;;;;;;;;;;;;;16.13;34.04;100773.00;5063728;28;984;-45
2024/01/12 05:29:08;;;;;;;;;;;;;;;15.84;34.73;100776.69;5076830;28;1072;-47
2024/01/12 05:31:34;;;;;;;;;;;;;;;15.62;35.17;100779.97;5073966;28;1047;-47
2024/01/12 05:34:00;;;;;;;;;;;;;;;16.84;33.26;100776.81;5065618;28;1993;-45
2024/01/12 05:36:25;;;;;;;;;;;;;;;17.41;32.00;100777.06;5075545;28;982;-44
2024/01/12 05:38:51;;;;;;;;;;;;;;;16.39;33.57;100797.69;5076119;28;1098;-45
2024/01/12 05:41:16;;;;;;;;;;;;;;;15.90;34.53;100802.78;5067164;28;1916;-41
2024/01/12 05:43:42;;;;;;;;;;;;;;;16.16;33.97;100802.78;5056235;28;1044;-47
2024/01/12 05:46:07;;;;;;;;;;;;;;;17.55;31.81;100796.44;5064747;28;1081;-48
2024/01/12 05:48:33;;;;;;;;;;;;;;;16.78;33.03;100810.00;5061904;28;916;-49
2024/01/12 05:51:00;;;;;;;;;;;;;;;16.06;33.81;100811.53;5071974;28;1147;-49
2024/01/12 05:53:25;;;;;;;;;;;;;;;16.15;34.08;100810.88;5064834;28;1910;-47
2024/01/12 05:55:52;;;;;;;;;;;;;;;17.57;31.61;100816.63;5069859;28;1051;-45
2024/01/12 05:58:18;;;;;;;;;;;;;;;17.09;32.14;100812.22;5075690;28;1044;-50
2024/01/12 06:00:44;;;;;;;;;;;;;;;16.26;33.91;100816.28;5069808;28;1102;-47
2024/01/12 06:03:09;;;;;;;;;;;;;;;16.26;33.73;100823.41;5066786;28;1115;-52
2024/01/12 06:05:35;;;;;;;;;;;;;;;17.67;31.57;100827.41;5061865;28;1066;-48
2024/01/12 06:08:00;;;;;;;;;;;;;;;17.02;32.38;100828.59;5075212;28;1078;-50
2024/01/12 06:10:26;;;;;;;;;;;;;;;16.26;33.95;100832.22;5061206;28;2365;-52
2024/01/12 06:12:53;;;;;;;;;;;;;;;16.08;34.04;100833.50;5062519;28;1976;-51
2024/01/12 06:15:19;;;;;;;;;;;;;;;17.51;31.88;100838.38;5060378;28;1103;-46
2024/01/12 06:17:44;;;;;;;;;;;;;;;17.21;32.09;100829.06;5074841;28;1031;-47
2024/01/12 06:20:10;;;;;;;;;;;;;;;16.31;33.51;100831.88;5062326;28;1058;-49
2024/01/12 06:22:36;;;;;;;;;;;;;;;15.87;34.30;100840.16;5061823;28;1086;-44
2024/01/12 06:25:01;;;;;;;;;;;;;;;17.27;32.06;100843.72;5072937;28;1117;-47
2024/01/12 06:27:27;;;;;;;;;;;;;;;17.61;31.40;100839.38;5057249;28;1029;-47
2024/01/12 06:29:53;;;;;;;;;;;;;;;16.59;33.22;100845.84;5055609;28;1035;-47
2024/01/12 06:32:19;;;;;;;;;;;;;;;16.06;34.22;100841.56;5059594;28;1902;-48
2024/01/12 06:34:44;;;;;;;;;;;;;;;16.12;34.30;100841.13;5075901;28;1147;-47
2024/01/12 06:37:10;;;;;;;;;;;;;;;17.55;31.67;100842.47;5070821;28;948;-48
2024/01/12 06:39:35;;;;;;;;;;;;;;;17.04;32.20;100847.09;5067083;28;1075;-49
2024/01/12 06:42:01;;;;;;;;;;;;;;;16.28;33.20;100859.47;5066058;28;2247;-45
2024/01/12 06:44:27;;;;;;;;;;;;;;;16.05;34.30;100855.78;5075756;28;1055;-46
2024/01/12 06:46:52;;;;;;;;;;;;;;;17.51;31.72;100864.97;5056950;28;1151;-51
2024/01/12 06:49:18;;;;;;;;;;;;;;;17.25;31.71;100865.94;5074020;28;1035;-50
2024/01/12 06:51:44;;;;;;;;;;;;;;;16.39;33.53;100865.84;5075180;28;1080;-51
2024/01/12 06:54:10;;;;;;;;;;;;;;;15.95;34.01;100862.66;5063852;28;1987;-47
2024/01/12 06:56:37;;;;;;;;;;;;;;;16.90;32.91;100872.00;5073263;28;1241;-49
2024/01/12 06:59:03;;;;;;;;;;;;;;;17.91;31.06;100861.06;5063869;28;1047;-51
2024/01/12 07:01:29;;;;;;;;;;;;;;;16.79;32.82;100864.81;5069879;28;892;-47
2024/01/12 07:03:54;;;;;;;;;;;;;;;16.18;33.86;100870.88;5072013;28;1125;-50
2024/01/12 07:06:20;;;;;;;;;;;;;;;16.53;33.52;100880.81;5061452;28;1418;-46
2024/01/12 07:08:45;;;;;;;;;;;;;;;17.79;31.34;100872.66;5075458;28;1035;-47
2024/01/12 07:11:11;;;;;;;;;;;;;;;17.15;32.12;100877.38;5064666;28;2315;-50
2024/01/12 07:13:37;;;;;;;;;;;;;;;16.37;33.40;100876.59;5075263;28;1913;-50
2024/01/12 07:16:03;;;;;;;;;;;;;;;15.89;34.57;100883.34;5056695;28;1182;-48
2024/01/12 07:18:28;;;;;;;;;;;;;;;17.13;32.43;100883.63;5066947;28;1067;-51
2024/01/12 07:20:56;;;;;;;;;;;;;;;17.71;31.24;100879.44;5076510;28;1052;-51
2024/01/12 07:23:22;;;;;;;;;;;;;;;16.68;32.92;100886.84;5077910;28;1027;-55
2024/01/12 07:25:47;;;;;;;;;;;;;;;16.41;33.71;100890.50;5076374;28;1087;-49
2024/01/12 07:28:13;;;;;;;;;;;;;;;17.00;32.76;100896.09;5079411;28;1079;-50
2024/01/12 07:30:40;;;;;;;;;;;;;;;17.74;31.29;100900.47;5078103;28;1066;-55
2024/01/12 07:33:06;;;;;;;;;;;;;;;16.66;32.84;100899.38;5059089;28;1883;-52
2024/01/12 07:35:31;;;;;;;;;;;;;;;16.05;33.91;100903.53;5076338;28;1083;-51
2024/01/12 07:37:57;;;;;;;;;;;;;;;16.08;34.29;100911.28;5079002;28;1074;-54
2024/01/12 07:40:23;;;;;;;;;;;;;;;17.50;31.82;100919.09;5070404;28;1064;-54
2024/01/12 07:42:48;;;;;;;;;;;;;;;17.55;31.57;100930.25;5065755;28;1183;-50
2024/01/12 07:45:14;;;;;;;;;;;;;;;16.56;33.38;100923.09;5078803;28;1048;-53
2024/01/12 07:47:39;;;;;;;;;;;;;;;16.00;34.29;100927.75;5063187;28;1062;-54
2024/01/12 07:50:06;;;;;;;;;;;;;;;16.99;32.77;100924.50;5068260;28;1227;-52
2024/01/12 07:52:32;;;;;;;;;;;;;;;17.73;31.36;100922.72;5065300;28;1914;-50
2024/01/12 07:54:57;;;;;;;;;;;;;;;16.63;32.89;100934.97;5068905;28;1019;-51
2024/01/12 07:57:23;;;;;;;;;;;;;;;16.05;33.81;100931.91;5061251;28;1166;-50
2024/01/12 07:59:48;;;;;;;;;;;;;;;17.29;32.17;100933.03;5076082;28;1131;-50
2024/01/12 08:02:15;;;;;;;;;;;;;;;17.49;31.83;100942.22;5074134;28;1187;-50
2024/01/12 08:04:40;;;;;;;;;;;;;;;16.40;33.54;100936.56;5078080;28;1036;-50
2024/01/12 08:07:06;;;;;;;;;;;;;;;15.95;34.16;100935.13;5078397;28;1027;-53
2024/01/12 08:09:32;;;;;;;;;;;;;;;17.01;32.59;100943.00;5069732;28;1257;-48
2024/01/12 08:11:57;;;;;;;;;;;;;;;17.80;31.10;100941.72;5071780;28;1203;-47
2024/01/12 08:14:23;;;;;;;;;;;;;;;16.71;32.85;100946.88;5075830;28;1969;-48
2024/01/12 08:16:49;;;;;;;;;;;;;;;16.10;34.18;100943.88;5077639;28;1127;-47
2024/01/12 08:19:15;;;;;;;;;;;;;;;17.12;32.59;100953.72;5077661;28;1273;-53
2024/01/12 08:21:41;;;;;;;;;;;;;;;17.45;31.72;100951.38;5078277;28;1182;-49
2024/01/12 08:24:06;;;;;;;;;;;;;;;16.50;33.20;100956.22;5074589;28;1075;-46
2024/01/12 08:26:32;;;;;;;;;;;;;;;16.28;33.92;100960.34;5078161;28;876;-50
2024/01/12 08:29:01;;;;;;;;;;;;;;;17.70;31.44;100977.97;5078198;28;1103;-47
2024/01/12 08:31:28;;;;;;;;;;;;;;;16.99;32.30;100972.34;5077746;28;1048;-47
2024/01/12 08:33:53;;;;;;;;;;;;;;;16.27;33.90;100973.75;5077868;28;1980;-49
2024/01/12 08:36:19;;;;;;;;;;;;;;;16.60;33.27;100980.34;5073729;28;1279;-45
2024/01/12 08:38:45;;;;;;;;;;;;;;;17.75;31.33;100992.63;5072515;28;1132;-51
2024/01/12 08:41:10;;;;;;;;;;;;;;;16.70;32.92;100987.69;5077670;28;1376;-48
2024/01/12 08:43:36;;;;;;;;;;;;;;;16.08;34.06;100987.41;5077602;28;1123;-51
2024/01/12 08:46:02;;;;;;;;;;;;;;;16.34;33.53;100993.63;5077704;28;1411;-46
2024/01/12 08:48:27;;;;;;;;;;;;;;;17.72;31.28;101000.84;5076450;28;1324;-46
2024/01/12 08:50:53;;;;;;;;;;;;;;;17.17;32.15;100995.91;5072644;28;1298;-49
2024/01/12 08:53:19;;;;;;;;;;;;;;;16.32;33.48;100995.53;5077219;28;1905;-45
2024/01/12 08:55:44;;;;;;;;;;;;;;;16.56;33.50;100989.50;5077078;28;1486;-49
2024/01/12 08:58:10;;;;;;;;;;;;;;;17.84;30.98;101000.88;5077156;28;1012;-53
2024/01/12 09:00:35;;;;;;;;;;;;;;;16.87;32.32;101002.41;5076694;28;1383;-45
2024/01/12 09:03:01;;;;;;;;;;;;;;;16.23;33.47;101001.47;5077968;28;1063;-46
2024/01/12 09:05:27;;;;;;;;;;;;;;;16.93;32.84;101009.97;5076418;28;1223;-50
2024/01/12 09:07:52;;;;;;;;;;;;;;;17.56;31.51;101009.13;5073511;28;1029;-47
2024/01/12 09:10:18;;;;;;;;;;;;;;;16.55;33.30;101013.50;5077339;28;1083;-48
2024/01/12 09:12:43;;;;;;;;;;;;;;;16.08;34.06;101004.16;5071965;28;1976;-44
2024/01/12 09:15:09;;;;;;;;;;;;;;;16.37;33.55;101016.44;5069987;28;1099;-44
2024/01/12 09:17:35;;;;;;;;;;;;;;;17.67;31.30;101015.44;5077033;28;1121;-47
2024/01/12 09:20:01;;;;;;;;;;;;;;;17.07;32.08;101016.97;5076574;28;1251;-46
2024/01/12 09:22:26;;;;;;;;;;;;;;;16.28;33.55;101016.09;5076937;28;1098;-48
2024/01/12 09:24:52;;;;;;;;;;;;;;;15.95;34.44;101016.53;5071015;28;1111;-50
2024/01/12 09:27:17;;;;;;;;;;;;;;;17.38;32.09;101020.09;5069074;28;1071;-46
2024/01/12 09:29:43;;;;;;;;;;;;;;;17.48;31.53;101007.00;5070921;28;1243;-48
2024/01/12 09:32:09;;;;;;;;;;;;;;;16.43;33.30;101013.38;5074328;28;1898;-49
2024/01/12 09:34:34;;;;;;;;;;;;;;;16.27;33.68;101014.41;5074420;28;1062;-45
2024/01/12 09:37:00;;;;;;;;;;;;;;;17.67;31.71;101008.31;5068315;28;1008;-47
2024/01/12 09:39:25;;;;;;;;;;;;;;;16.96;32.41;101001.78;5068815;28;1135;-48
2024/01/12 09:41:51;;;;;;;;;;;;;;;16.26;33.64;101007.41;5076168;28;1066;-49
2024/01/12 09:44:20;;;;;;;;;;;;;;;16.06;34.36;101014.06;5074660;28;1003;-48
2024/01/12 09:46:56;;;;;;;;;;;;;;;17.52;31.75;101014.78;5076139;28;1103;-48
2024/01/12 09:49:22;;;;;;;;;;;;;;;17.17;32.17;101024.31;5070788;28;1102;-50
2024/01/12 09:51:47;;;;;;;;;;;;;;;16.36;33.71;101022.72;5067298;28;1233;-49
2024/01/12 09:54:13;;;;;;;;;;;;;;;16.09;34.08;101020.94;5057286;28;1973;-48
2024/01/12 09:56:39;;;;;;;;;;;;;;;17.49;31.93;101027.31;5076850;28;1118;-45
2024/01/12 09:59:05;;;;;;;;;;;;;;;17.20;32.36;101032.09;5075547;28;1139;-47
2024/01/12 10:01:31;;;;;;;;;;;;;;;16.32;33.59;101024.72;5049603;28;1123;-47
2024/01/12 10:03:56;;;;;;;;;;;;;;;16.25;34.16;101026.94;5075083;28;1118;-50
2024/01/12 10:06:22;;;;;;;;;;;;;;;17.62;31.91;101035.25;5076590;28;1044;-45
2024/01/12 10:08:48;;;;;;;;;;;;;;;17.27;32.27;101038.66;5074127;28;1307;-47
2024/01/12 10:11:13;;;;;;;;;;;;;;;16.39;33.81;101039.28;5070655;28;1309;-53
2024/01/12 10:13:39;;;;;;;;;;;;;;;16.40;34.08;101038.31;5067353;28;1909;-49
2024/01/12 10:16:07;;;;;;;;;;;;;;;17.78;31.61;101046.59;5076425;28;1127;-49
2024/01/12 10:18:33;;;;;;;;;;;;;;;16.92;33.02;101039.28;5074947;28;1285;-49
2024/01/12 10:20:59;;;;;;;;;;;;;;;16.25;34.06;101042.00;5073716;28;1211;-53
2024/01/12 10:23:26;;;;;;;;;;;;;;;16.89;33.39;101041.22;5066473;28;1067;-56
2024/01/12 10:25:57;;;;;;;;;;;;;;;17.80;31.61;101042.00;5070267;28;1214;-47
2024/01/12 10:28:23;;;;;;;;;;;;;;;16.65;33.66;101038.44;5076126;28;1126;-50
2024/01/12 10:30:48;;;;;;;;;;;;;;;16.13;34.57;101049.00;5062451;28;1091;-48
2024/01/12 10:33:16;;;;;;;;;;;;;;;16.70;33.85;101044.28;5072162;28;1913;-46
2024/01/12 10:35:42;;;;;;;;;;;;;;;17.85;31.78;101047.84;5075728;28;1134;-46
2024/01/12 10:38:07;;;;;;;;;;;;;;;16.77;33.27;101050.91;5055139;28;869;-49
2024/01/12 10:40:33;;;;;;;;;;;;;;;16.16;34.56;101054.94;5057650;28;1139;-44
2024/01/12 10:42:58;;;;;;;;;;;;;;;16.14;34.66;101058.66;5057854;28;1453;-45
2024/01/12 10:45:25;;;;;;;;;;;;;;;17.61;32.18;101057.50;5075309;28;1225;-51
2024/01/12 10:48:03;;;;;;;;;;;;;;;16.93;33.27;101055.16;5057762;28;1120;-51
2024/01/12 10:50:36;;;;;;;;;;;;;;;16.19;34.47;101056.56;5069393;28;1084;-50
2024/01/12 10:53:02;;;;;;;;;;;;;;;17.04;33.15;101048.22;5058004;28;1910;-49
2024/01/12 10:55:31;;;;;;;;;;;;;;;17.66;32.10;101056.31;5078597;28;1208;-48
2024/01/12 10:57:56;;;;;;;;;;;;;;;16.58;33.65;101053.94;5061728;28;1405;-45
2024/01/12 11:00:22;;;;;;;;;;;;;;;16.06;34.69;101048.56;5061699;28;1099;-51
2024/01/12 11:02:48;;;;;;;;;;;;;;;16.68;34.01;101062.16;5048121;28;1120;-51
2024/01/12 11:05:13;;;;;;;;;;;;;;;17.76;32.05;101060.00;5074912;28;1328;-45
2024/01/12 11:07:39;;;;;;;;;;;;;;;16.71;33.77;101051.34;5061879;28;1124;-46
2024/01/12 11:10:06;;;;;;;;;;;;;;;16.16;34.68;101059.41;5079282;28;1205;-47
2024/01/12 11:12:35;;;;;;;;;;;;;;;16.84;33.70;101061.09;5078448;28;1984;-46
2024/01/12 11:15:01;;;;;;;;;;;;;;;17.91;31.78;101043.88;5056237;28;1261;-42
2024/01/12 11:17:29;;;;;;;;;;;;;;;16.84;33.36;101053.97;5079029;28;1040;-48
2024/01/12 11:20:13;;;;;;;;;;;;;;;16.16;34.55;101054.94;5079251;28;1229;-46
2024/01/12 11:22:43;;;;;;;;;;;;;;;16.53;34.18;101056.94;5061210;28;1342;-46
2024/01/12 11:25:10;;;;;;;;;;;;;;;17.83;32.08;101055.91;5079328;28;1086;-47
2024/01/12 11:27:42;;;;;;;;;;;;;;;16.68;33.74;101063.97;5074385;28;1128;-48
2024/01/12 11:30:09;;;;;;;;;;;;;;;16.10;34.68;101059.81;5078958;28;1119;-52
2024/01/12 11:32:35;;;;;;;;;;;;;;;16.99;33.45;101064.50;5078212;28;1911;-44
2024/01/12 11:35:09;;;;;;;;;;;;;;;17.90;31.80;101068.78;5079571;28;1126;-42
2024/01/12 11:37:35;;;;;;;;;;;;;;;16.75;33.58;101075.84;5078460;28;1171;-44
2024/01/12 11:40:04;;;;;;;;;;;;;;;16.16;34.66;101068.22;5079190;28;1035;-47
2024/01/12 11:42:29;;;;;;;;;;;;;;;16.85;33.91;101070.78;5078625;28;1174;-46
2024/01/12 11:44:55;;;;;;;;;;;;;;;17.80;32.07;101066.78;5078359;28;1160;-48
2024/01/12 11:47:21;;;;;;;;;;;;;;;16.80;33.41;101076.38;5074622;28;1069;-49
2024/01/12 11:49:46;;;;;;;;;;;;;;;16.14;34.54;101071.94;5077515;28;1411;-49
2024/01/12 11:52:12;;;;;;;;;;;;;;;16.17;35.00;101077.03;5071577;28;1934;-49
2024/01/12 11:54:38;;;;;;;;;;;;;;;17.57;32.38;101071.13;5070008;28;1076;-49
2024/01/12 11:57:04;;;;;;;;;;;;;;;17.46;32.24;101086.06;5078176;28;1322;-47
2024/01/12 11:59:29;;;;;;;;;;;;;;;16.55;34.27;101091.34;5078659;28;1122;-47
2024/01/12 12:01:55;;;;;;;;;;;;;;;16.02;35.08;101095.66;5073079;28;1435;-47
2024/01/12 12:04:21;;;;;;;;;;;;;;;16.97;33.74;101090.31;5077550;28;1408;-53
2024/01/12 12:06:47;;;;;;;;;;;;;;;17.69;32.13;101088.00;5077110;28;1130;-52
2024/01/12 12:09:12;;;;;;;;;;;;;;;16.64;33.89;101098.72;5077704;28;1486;-50
2024/01/12 12:11:38;;;;;;;;;;;;;;;16.06;34.92;101095.47;5073411;28;1193;-50
2024/01/12 12:14:04;;;;;;;;;;;;;;;17.23;33.10;101093.00;5064846;28;1902;-47
2024/01/12 12:16:29;;;;;;;;;;;;;;;17.66;32.17;101091.75;5069577;28;1103;-46
2024/01/12 12:18:55;;;;;;;;;;;;;;;16.60;33.71;101102.50;5078314;28;1083;-46
2024/01/12 12:21:21;;;;;;;;;;;;;;;16.16;34.46;101107.19;5078014;28;1126;-46
2024/01/12 12:23:47;;;;;;;;;;;;;;;17.19;33.18;101103.00;5078622;28;1147;-46
2024/01/12 12:26:13;;;;;;;;;;;;;;;17.53;32.45;101113.06;5074423;28;1067;-49
2024/01/12 12:28:39;;;;;;;;;;;;;;;16.53;34.17;101110.03;5056660;28;1350;-45
2024/01/12 12:31:08;;;;;;;;;;;;;;;16.09;34.79;101106.75;5078140;28;1087;-46
2024/01/12 12:33:33;;;;;;;;;;;;;;;17.20;32.97;101112.69;5074538;28;1890;-48
2024/01/12 12:36:08;;;;;;;;;;;;;;;17.54;32.23;101117.44;5078275;28;1155;-46
2024/01/12 12:38:37;;;;;;;;;;;;;;;16.50;33.99;101107.59;5053665;28;1151;-46
2024/01/12 12:41:03;;;;;;;;;;;;;;;16.01;35.20;101114.34;5078204;28;1110;-47